createdAt,value
2022-11-22T00:00:10.791Z,4.15
2022-11-22T00:01:12.276Z,4.15
2022-11-22T00:02:13.748Z,4.15
2022-11-22T00:03:15.342Z,4.15
2022-11-22T00:04:17.215Z,4.15
2022-11-22T00:05:18.826Z,4.16
2022-11-22T00:06:20.221Z,4.16
2022-11-22T00:07:21.801Z,4.16
2022-11-22T00:08:23.353Z,4.18
2022-11-22T00:09:24.778Z,4.15
2022-11-22T00:10:26.503Z,4.15
2022-11-22T00:11:27.964Z,4.15
2022-11-22T00:12:29.382Z,4.13
2022-11-22T00:13:31.115Z,4.11
2022-11-22T00:14:32.587Z,4.09
2022-11-22T00:15:34.116Z,4.09
2022-11-22T00:16:35.700Z,4.04
2022-11-22T00:17:37.449Z,4.03
2022-11-22T00:18:39.218Z,4.03
2022-11-22T00:19:41.725Z,4.02
2022-11-22T00:20:43.130Z,4.02
2022-11-22T00:21:44.592Z,4.02
2022-11-22T00:22:46.316Z,4.01
2022-11-22T00:23:47.773Z,4.01
2022-11-22T00:24:51.554Z,4.01
2022-11-22T00:25:52.993Z,4.00
2022-11-22T00:26:54.474Z,4.03
2022-11-22T00:27:56.340Z,4.02
2022-11-22T00:28:57.896Z,4.04
2022-11-22T00:29:59.291Z,4.06
2022-11-22T00:31:00.706Z,4.08
2022-11-22T00:32:02.109Z,4.10
2022-11-22T00:33:03.925Z,4.12
2022-11-22T00:34:05.364Z,4.13
2022-11-22T00:35:07.380Z,4.13
2022-11-22T00:36:09.085Z,4.15
2022-11-22T00:37:10.656Z,4.17
2022-11-22T00:38:12.445Z,4.18
2022-11-22T00:39:13.901Z,4.17
2022-11-22T00:40:15.879Z,4.15
2022-11-22T00:41:17.290Z,4.18
2022-11-22T00:42:18.946Z,4.19
2022-11-22T00:43:20.377Z,4.20
2022-11-22T00:44:21.786Z,4.22
2022-11-22T00:45:23.249Z,4.22
2022-11-22T00:46:25.526Z,4.22
2022-11-22T00:47:26.936Z,4.20
2022-11-22T00:48:28.828Z,4.18
2022-11-22T00:49:30.511Z,4.20
2022-11-22T00:50:32.121Z,4.20
2022-11-22T00:51:33.779Z,4.20
2022-11-22T00:52:35.211Z,4.19
2022-11-22T00:53:36.940Z,4.17
2022-11-22T00:54:38.414Z,4.16
2022-11-22T00:55:39.853Z,4.17
2022-11-22T00:56:41.277Z,4.16
2022-11-22T00:57:43.008Z,4.13
2022-11-22T00:58:44.412Z,4.20
2022-11-22T00:59:45.812Z,4.18
2022-11-22T01:00:49.164Z,4.14
2022-11-22T01:01:53.598Z,4.07
2022-11-22T01:02:55.403Z,4.08
2022-11-22T01:03:56.884Z,4.08
2022-11-22T01:04:58.332Z,4.08
2022-11-22T01:05:59.796Z,4.08
2022-11-22T01:07:01.345Z,4.08
2022-11-22T01:08:03.177Z,4.08
2022-11-22T01:09:04.763Z,4.11
2022-11-22T01:10:06.692Z,4.09
2022-11-22T01:11:08.676Z,4.08
2022-11-22T01:12:10.216Z,4.06
2022-11-22T01:13:12.840Z,4.06
2022-11-22T01:14:15.207Z,4.07
2022-11-22T01:15:16.691Z,4.13
2022-11-22T01:16:18.519Z,4.13
2022-11-22T01:17:20.504Z,4.13
2022-11-22T01:18:21.980Z,4.14
2022-11-22T01:19:23.431Z,4.09
2022-11-22T01:20:25.333Z,4.11
2022-11-22T01:21:26.798Z,4.11
2022-11-22T01:22:28.584Z,4.11
2022-11-22T01:23:30.883Z,4.11
2022-11-22T01:24:32.350Z,4.20
2022-11-22T01:25:33.803Z,4.20
2022-11-22T01:26:35.838Z,4.16
2022-11-22T01:27:37.681Z,4.18
2022-11-22T01:28:39.133Z,4.18
2022-11-22T01:29:40.591Z,4.16
2022-11-22T01:30:42.621Z,4.18
2022-11-22T01:31:44.284Z,4.14
2022-11-22T01:32:46.022Z,4.14
2022-11-22T01:33:47.425Z,4.18
2022-11-22T01:34:48.866Z,4.18
2022-11-22T01:35:50.325Z,4.26
2022-11-22T01:36:51.786Z,4.27
2022-11-22T01:37:53.528Z,4.28
2022-11-22T01:38:55.476Z,4.28
2022-11-22T01:39:57.051Z,4.31
2022-11-22T01:40:58.788Z,4.31
2022-11-22T01:42:00.316Z,4.30
2022-11-22T01:43:02.775Z,4.28
2022-11-22T01:44:28.818Z,4.27
2022-11-22T01:45:30.232Z,4.27
2022-11-22T01:46:37.306Z,4.26
2022-11-22T01:47:38.845Z,4.25
2022-11-22T01:48:43.235Z,4.26
2022-11-22T01:50:04.760Z,4.25
2022-11-22T01:51:18.329Z,4.25
2022-11-22T01:52:22.972Z,4.26
2022-11-22T01:53:29.372Z,4.27
2022-11-22T01:54:35.696Z,4.31
2022-11-22T01:55:37.339Z,4.32
2022-11-22T01:56:41.930Z,4.33
2022-11-22T01:57:45.472Z,4.34
2022-11-22T01:58:50.440Z,4.37
2022-11-22T01:59:58.287Z,4.38
2022-11-22T02:01:00.822Z,4.39
2022-11-22T02:02:03.515Z,4.40
2022-11-22T02:03:09.780Z,4.49
2022-11-22T02:04:15.668Z,4.45
2022-11-22T02:05:22.823Z,4.41
2022-11-22T02:06:31.344Z,4.41
2022-11-22T02:07:41.516Z,4.36
2022-11-22T02:09:11.634Z,4.38
2022-11-22T02:10:14.423Z,4.38
2022-11-22T02:11:17.817Z,4.43
2022-11-22T02:12:23.722Z,4.43
2022-11-22T02:13:26.451Z,4.42
2022-11-22T02:14:28.942Z,4.39
2022-11-22T02:15:30.651Z,4.37
2022-11-22T02:16:34.348Z,4.41
2022-11-22T02:17:36.106Z,4.40
2022-11-22T02:18:38.350Z,4.38
2022-11-22T02:19:47.301Z,4.39
2022-11-22T02:20:48.776Z,4.35
2022-11-22T02:21:58.241Z,4.36
2022-11-22T02:23:18.761Z,4.40
2022-11-22T02:24:31.683Z,4.38
2022-11-22T02:25:41.542Z,4.41
2022-11-22T02:26:43.078Z,4.43
2022-11-22T02:27:44.872Z,4.45
2022-11-22T02:28:46.829Z,4.40
2022-11-22T02:29:48.261Z,4.40
2022-11-22T02:30:49.758Z,4.45
2022-11-22T02:31:51.279Z,4.45
2022-11-22T02:32:53.064Z,4.48
2022-11-22T02:33:57.542Z,4.47
2022-11-22T02:35:02.994Z,4.48
2022-11-22T02:36:04.711Z,4.48
2022-11-22T02:37:06.154Z,4.51
2022-11-22T02:38:22.625Z,4.52
2022-11-22T02:39:28.957Z,4.54
2022-11-22T02:41:09.250Z,4.53
2022-11-22T02:42:11.700Z,4.44
2022-11-22T02:43:29.312Z,4.42
2022-11-22T02:44:30.816Z,4.46
2022-11-22T02:45:32.341Z,4.47
2022-11-22T02:46:33.831Z,4.48
2022-11-22T02:47:35.596Z,4.49
2022-11-22T02:48:44.609Z,4.52
2022-11-22T02:49:46.038Z,4.55
2022-11-22T02:50:47.479Z,4.55
2022-11-22T02:51:49.679Z,4.55
2022-11-22T02:52:51.462Z,4.55
2022-11-22T02:53:53.746Z,4.55
2022-11-22T02:54:55.201Z,4.57
2022-11-22T02:55:56.675Z,4.58
2022-11-22T02:56:58.080Z,4.59
2022-11-22T02:58:00.220Z,4.60
2022-11-22T02:59:01.661Z,4.61
2022-11-22T03:00:04.035Z,4.60
2022-11-22T03:01:05.543Z,4.65
2022-11-22T03:02:07.343Z,4.65
2022-11-22T03:03:08.785Z,4.68
2022-11-22T03:04:10.212Z,4.63
2022-11-22T03:05:11.697Z,4.63
2022-11-22T03:06:13.148Z,4.63
2022-11-22T03:07:14.928Z,4.63
2022-11-22T03:08:16.392Z,4.66
2022-11-22T03:09:17.855Z,4.65
2022-11-22T03:10:19.391Z,4.67
2022-11-22T03:11:20.913Z,4.65
2022-11-22T03:12:22.743Z,4.69
2022-11-22T03:13:24.219Z,4.66
2022-11-22T03:14:26.207Z,4.68
2022-11-22T03:15:27.698Z,4.65
2022-11-22T03:16:30.829Z,4.66
2022-11-22T03:17:32.705Z,4.67
2022-11-22T03:18:35.500Z,4.70
2022-11-22T03:19:36.931Z,4.72
2022-11-22T03:20:38.361Z,4.72
2022-11-22T03:21:41.468Z,4.70
2022-11-22T03:22:42.975Z,4.70
2022-11-22T03:23:44.547Z,4.69
2022-11-22T03:24:45.992Z,4.71
2022-11-22T03:25:47.439Z,4.72
2022-11-22T03:26:49.983Z,4.71
2022-11-22T03:27:51.391Z,4.72
2022-11-22T03:28:52.801Z,4.71
2022-11-22T03:29:54.229Z,4.74
2022-11-22T03:30:55.630Z,4.73
2022-11-22T03:31:57.113Z,4.75
2022-11-22T03:32:58.542Z,4.76
2022-11-22T03:33:59.983Z,4.77
2022-11-22T03:35:01.493Z,4.78
2022-11-22T03:36:04.008Z,4.80
2022-11-22T03:37:05.782Z,4.81
2022-11-22T03:38:07.232Z,4.81
2022-11-22T03:39:08.797Z,4.81
2022-11-22T03:40:10.471Z,4.81
2022-11-22T03:41:11.878Z,4.79
2022-11-22T03:42:18.191Z,4.81
2022-11-22T03:43:22.944Z,4.86
2022-11-22T03:44:24.439Z,4.83
2022-11-22T03:45:26.017Z,4.81
2022-11-22T03:46:27.442Z,4.82
2022-11-22T03:47:29.155Z,4.84
2022-11-22T03:48:31.212Z,4.82
2022-11-22T03:49:32.913Z,4.83
2022-11-22T03:50:34.522Z,4.83
2022-11-22T03:51:35.940Z,4.86
2022-11-22T03:52:37.678Z,4.85
2022-11-22T03:53:39.404Z,4.86
2022-11-22T03:54:40.846Z,4.86
2022-11-22T03:55:42.363Z,4.86
2022-11-22T03:56:44.109Z,4.84
2022-11-22T03:57:45.643Z,4.86
2022-11-22T03:58:47.108Z,4.87
2022-11-22T03:59:48.530Z,4.88
2022-11-22T04:00:49.938Z,4.91
2022-11-22T04:01:51.824Z,4.93
2022-11-22T04:02:53.449Z,4.90
2022-11-22T04:03:54.876Z,4.90
2022-11-22T04:04:56.922Z,4.88
2022-11-22T04:05:58.409Z,4.88
2022-11-22T04:07:00.372Z,4.90
2022-11-22T04:08:01.802Z,4.88
2022-11-22T04:09:03.402Z,4.90
2022-11-22T04:10:05.927Z,4.91
2022-11-22T04:11:07.675Z,4.91
2022-11-22T04:12:09.083Z,4.92
2022-11-22T04:13:10.552Z,4.92
2022-11-22T04:14:31.029Z,4.95
2022-11-22T04:15:32.584Z,4.95
2022-11-22T04:16:34.035Z,4.98
2022-11-22T04:17:41.379Z,5.01
2022-11-22T04:18:42.861Z,5.02
2022-11-22T04:20:04.233Z,5.03
2022-11-22T04:21:24.239Z,5.04
2022-11-22T04:22:25.682Z,5.06
2022-11-22T04:23:33.428Z,5.11
2022-11-22T04:24:53.632Z,5.06
2022-11-22T04:25:55.605Z,5.08
2022-11-22T04:26:58.485Z,5.06
2022-11-22T04:28:00.598Z,5.00
2022-11-22T04:29:09.661Z,4.98
2022-11-22T04:30:15.965Z,5.06
2022-11-22T04:31:39.286Z,5.05
2022-11-22T04:32:46.795Z,4.97
2022-11-22T04:33:48.253Z,4.93
2022-11-22T04:34:49.678Z,4.92
2022-11-22T04:35:51.739Z,4.94
2022-11-22T04:36:53.677Z,4.93
2022-11-22T04:37:55.113Z,4.93
2022-11-22T04:38:56.566Z,4.93
2022-11-22T04:39:58.028Z,4.96
2022-11-22T04:40:59.449Z,4.93
2022-11-22T04:42:19.617Z,4.91
2022-11-22T04:43:39.734Z,4.90
2022-11-22T04:44:42.666Z,4.95
2022-11-22T04:45:45.076Z,4.93
2022-11-22T04:46:46.831Z,4.98
2022-11-22T04:48:01.012Z,4.94
2022-11-22T04:49:05.905Z,4.91
2022-11-22T04:50:29.169Z,4.92
2022-11-22T04:51:49.210Z,4.86
2022-11-22T04:52:54.126Z,4.93
2022-11-22T04:53:56.085Z,4.94
2022-11-22T04:54:57.490Z,4.97
2022-11-22T04:55:58.963Z,4.92
2022-11-22T04:57:00.408Z,4.91
2022-11-22T04:58:02.774Z,4.90
2022-11-22T04:59:04.251Z,4.90
2022-11-22T05:00:06.433Z,4.90
2022-11-22T05:01:09.096Z,4.90
2022-11-22T05:02:11.176Z,4.85
2022-11-22T05:03:19.827Z,4.88
2022-11-22T05:04:21.650Z,5.00
2022-11-22T05:05:24.186Z,4.92
2022-11-22T05:06:26.150Z,4.90
2022-11-22T05:07:29.010Z,4.91
2022-11-22T05:08:31.309Z,4.92
2022-11-22T05:09:33.022Z,4.91
2022-11-22T05:10:54.160Z,4.97
2022-11-22T05:11:55.598Z,4.91
2022-11-22T05:12:57.247Z,4.98
2022-11-22T05:13:58.747Z,5.00
2022-11-22T05:15:00.225Z,5.03
2022-11-22T05:16:03.605Z,5.00
2022-11-22T05:17:05.400Z,5.04
2022-11-22T05:18:06.845Z,5.08
2022-11-22T05:19:08.315Z,5.11
2022-11-22T05:20:10.601Z,5.11
2022-11-22T05:21:14.351Z,5.14
2022-11-22T05:22:17.066Z,5.16
2022-11-22T05:23:37.764Z,5.18
2022-11-22T05:24:39.180Z,5.21
2022-11-22T05:25:41.736Z,5.24
2022-11-22T05:26:43.526Z,5.27
2022-11-22T05:27:45.022Z,5.28
2022-11-22T05:28:46.593Z,5.27
2022-11-22T05:29:48.008Z,5.26
2022-11-22T05:30:49.506Z,5.28
2022-11-22T05:31:51.621Z,5.30
2022-11-22T05:32:54.922Z,5.34
2022-11-22T05:33:57.317Z,5.31
2022-11-22T05:34:58.896Z,5.36
2022-11-22T05:36:00.441Z,5.38
2022-11-22T05:37:03.020Z,5.37
2022-11-22T05:38:04.476Z,5.34
2022-11-22T05:39:05.931Z,5.33
2022-11-22T05:40:08.115Z,5.33
2022-11-22T05:41:12.238Z,5.35
2022-11-22T05:42:13.826Z,5.37
2022-11-22T05:43:15.236Z,5.36
2022-11-22T05:44:16.676Z,5.36
2022-11-22T05:45:18.208Z,5.33
2022-11-22T05:46:24.692Z,5.33
2022-11-22T05:47:26.986Z,5.33
2022-11-22T05:48:28.403Z,5.33
2022-11-22T05:49:30.332Z,5.34
2022-11-22T05:50:31.998Z,5.39
2022-11-22T05:51:35.014Z,5.38
2022-11-22T05:52:37.387Z,5.38
2022-11-22T05:53:39.882Z,5.37
2022-11-22T05:54:41.291Z,5.33
2022-11-22T05:55:42.737Z,5.34
2022-11-22T05:56:44.177Z,5.34
2022-11-22T05:57:45.686Z,5.36
2022-11-22T05:58:47.464Z,5.35
2022-11-22T05:59:48.901Z,5.38
2022-11-22T06:00:50.298Z,5.41
2022-11-22T06:01:51.767Z,5.43
2022-11-22T06:02:53.543Z,5.45
2022-11-22T06:03:55.004Z,5.47
2022-11-22T06:04:56.451Z,5.45
2022-11-22T06:05:57.894Z,5.42
2022-11-22T06:06:59.297Z,5.44
2022-11-22T06:08:01.829Z,5.46
2022-11-22T06:09:04.051Z,5.47
2022-11-22T06:10:05.856Z,5.46
2022-11-22T06:11:14.964Z,5.47
2022-11-22T06:12:16.730Z,5.49
2022-11-22T06:13:18.167Z,5.48
2022-11-22T06:14:19.586Z,5.51
2022-11-22T06:15:22.010Z,5.52
2022-11-22T06:16:24.327Z,5.54
2022-11-22T06:17:26.214Z,5.57
2022-11-22T06:18:27.771Z,5.58
2022-11-22T06:19:29.333Z,5.59
2022-11-22T06:20:30.922Z,5.60
2022-11-22T06:21:32.355Z,5.61
2022-11-22T06:22:34.152Z,5.61
2022-11-22T06:23:35.715Z,5.61
2022-11-22T06:24:37.155Z,5.62
2022-11-22T06:25:38.576Z,5.63
2022-11-22T06:26:40.015Z,5.63
2022-11-22T06:27:41.482Z,5.60
2022-11-22T06:28:43.417Z,5.59
2022-11-22T06:29:44.990Z,5.58
2022-11-22T06:30:46.424Z,5.57
2022-11-22T06:31:47.850Z,5.57
2022-11-22T06:32:49.613Z,5.58
2022-11-22T06:33:51.239Z,5.59
2022-11-22T06:34:52.712Z,5.63
2022-11-22T06:35:54.174Z,5.63
2022-11-22T06:36:55.645Z,5.60
2022-11-22T06:38:00.651Z,5.57
2022-11-22T06:39:03.702Z,5.57
2022-11-22T06:40:07.350Z,5.60
2022-11-22T06:41:17.494Z,5.62
2022-11-22T06:42:18.913Z,5.63
2022-11-22T06:43:20.308Z,5.64
2022-11-22T06:44:21.958Z,5.67
2022-11-22T06:45:23.374Z,5.70
2022-11-22T06:46:27.057Z,5.69
2022-11-22T06:47:28.809Z,5.70
2022-11-22T06:48:32.626Z,5.69
2022-11-22T06:49:34.037Z,5.69
2022-11-22T06:50:35.463Z,5.67
2022-11-22T06:51:36.901Z,5.68
2022-11-22T06:52:38.695Z,5.69
2022-11-22T06:53:49.039Z,5.69
2022-11-22T06:54:50.955Z,5.70
2022-11-22T06:55:56.825Z,5.72
2022-11-22T06:57:01.450Z,5.72
2022-11-22T06:58:02.907Z,5.74
2022-11-22T06:59:05.739Z,5.75
2022-11-22T07:00:08.616Z,5.76
2022-11-22T07:01:18.380Z,5.75
2022-11-22T07:02:19.948Z,5.75
2022-11-22T07:03:21.376Z,5.74
2022-11-22T07:04:22.799Z,5.74
2022-11-22T07:05:25.965Z,5.74
2022-11-22T07:06:33.518Z,5.76
2022-11-22T07:07:35.421Z,5.75
2022-11-22T07:08:37.959Z,5.75
2022-11-22T07:09:39.432Z,5.74
2022-11-22T07:10:40.839Z,5.77
2022-11-22T07:11:42.339Z,5.78
2022-11-22T07:12:43.825Z,5.78
2022-11-22T07:13:45.997Z,5.78
2022-11-22T07:14:47.422Z,5.78
2022-11-22T07:15:59.341Z,5.79
2022-11-22T07:17:01.093Z,5.80
2022-11-22T07:18:02.906Z,5.82
2022-11-22T07:19:05.392Z,5.84
2022-11-22T07:20:07.524Z,5.84
2022-11-22T07:21:12.843Z,5.83
2022-11-22T07:22:21.922Z,5.84
2022-11-22T07:23:23.418Z,5.84
2022-11-22T07:24:24.908Z,5.86
2022-11-22T07:25:26.314Z,5.85
2022-11-22T07:26:28.873Z,5.86
2022-11-22T07:27:30.536Z,5.85
2022-11-22T07:28:32.571Z,5.86
2022-11-22T07:29:34.027Z,5.88
2022-11-22T07:30:37.633Z,5.91
2022-11-22T07:31:45.548Z,5.94
2022-11-22T07:32:47.912Z,5.93
2022-11-22T07:33:49.352Z,5.94
2022-11-22T07:34:50.755Z,5.97
2022-11-22T07:35:52.325Z,5.97
2022-11-22T07:36:59.086Z,5.99
2022-11-22T07:38:03.258Z,5.98
2022-11-22T07:39:04.775Z,5.99
2022-11-22T07:40:06.938Z,6.00
2022-11-22T07:41:09.243Z,6.02
2022-11-22T07:42:11.060Z,6.05
2022-11-22T07:43:12.503Z,6.06
2022-11-22T07:44:13.929Z,6.07
2022-11-22T07:45:15.381Z,6.05
2022-11-22T07:46:26.616Z,6.08
2022-11-22T07:47:28.087Z,6.09
2022-11-22T07:48:29.751Z,6.12
2022-11-22T07:49:31.387Z,6.12
2022-11-22T07:50:33.625Z,6.13
2022-11-22T07:51:35.407Z,6.14
2022-11-22T07:52:37.307Z,6.16
2022-11-22T07:53:38.829Z,6.14
2022-11-22T07:54:40.244Z,6.10
2022-11-22T07:55:41.649Z,6.11
2022-11-22T07:56:43.395Z,6.06
2022-11-22T07:57:44.801Z,6.08
2022-11-22T07:58:46.312Z,6.10
2022-11-22T07:59:47.822Z,6.13
2022-11-22T08:00:49.595Z,6.14
2022-11-22T08:01:51.468Z,6.13
2022-11-22T08:02:53.027Z,6.18
2022-11-22T08:03:54.485Z,6.22
2022-11-22T08:04:55.886Z,6.26
2022-11-22T08:06:01.623Z,6.28
2022-11-22T08:07:03.865Z,6.27
2022-11-22T08:08:05.528Z,6.29
2022-11-22T08:09:06.924Z,6.24
2022-11-22T08:10:08.840Z,6.27
2022-11-22T08:11:11.351Z,6.22
2022-11-22T08:12:12.768Z,6.18
2022-11-22T08:13:14.169Z,6.10
2022-11-22T08:14:15.574Z,6.12
2022-11-22T08:15:17.315Z,6.14
2022-11-22T08:16:19.144Z,6.20
2022-11-22T08:17:20.556Z,6.23
2022-11-22T08:18:22.710Z,6.28
2022-11-22T08:19:24.232Z,6.33
2022-11-22T08:20:26.188Z,6.35
2022-11-22T08:21:27.605Z,6.33
2022-11-22T08:22:29.031Z,6.35
2022-11-22T08:23:30.438Z,6.32
2022-11-22T08:24:32.033Z,6.37
2022-11-22T08:25:34.124Z,6.38
2022-11-22T08:26:36.145Z,6.36
2022-11-22T08:27:37.722Z,6.29
2022-11-22T08:28:40.090Z,6.37
2022-11-22T08:29:41.930Z,6.45
2022-11-22T08:30:43.671Z,6.50
2022-11-22T08:31:45.105Z,6.56
2022-11-22T08:32:46.531Z,6.61
2022-11-22T08:33:48.419Z,6.66
2022-11-22T08:34:49.837Z,6.67
2022-11-22T08:35:51.566Z,6.71
2022-11-22T08:36:52.990Z,6.66
2022-11-22T08:37:58.285Z,6.63
2022-11-22T08:38:59.760Z,6.62
2022-11-22T08:40:01.237Z,6.67
2022-11-22T08:41:04.430Z,6.70
2022-11-22T08:42:07.056Z,6.78
2022-11-22T08:43:08.619Z,6.67
2022-11-22T08:44:10.075Z,6.74
2022-11-22T08:45:11.485Z,6.85
2022-11-22T08:46:13.179Z,6.98
2022-11-22T08:47:14.637Z,7.00
2022-11-22T08:48:21.865Z,7.08
2022-11-22T08:49:23.825Z,7.18
2022-11-22T08:50:25.232Z,7.24
2022-11-22T08:51:26.928Z,7.30
2022-11-22T08:52:28.368Z,7.44
2022-11-22T08:53:32.875Z,7.69
2022-11-22T08:54:37.681Z,7.96
2022-11-22T08:55:39.633Z,8.28
2022-11-22T08:56:41.868Z,8.45
2022-11-22T08:57:43.255Z,8.53
2022-11-22T08:58:44.822Z,8.44
2022-11-22T08:59:46.392Z,8.44
2022-11-22T09:00:47.906Z,8.54
2022-11-22T09:01:49.715Z,8.59
2022-11-22T09:02:51.240Z,8.56
2022-11-22T09:03:52.670Z,8.39
2022-11-22T09:04:54.089Z,8.40
2022-11-22T09:08:55.411Z,8.32
2022-11-22T09:10:08.006Z,8.19
2022-11-22T09:11:15.233Z,8.17
2022-11-22T09:12:16.636Z,8.11
2022-11-22T09:13:18.045Z,8.03
2022-11-22T09:14:19.485Z,8.02
2022-11-22T09:15:21.237Z,8.03
2022-11-22T09:16:23.008Z,8.07
2022-11-22T09:17:24.440Z,8.12
2022-11-22T09:18:25.827Z,8.06
2022-11-22T09:19:27.298Z,8.07
2022-11-22T09:20:28.891Z,8.04
2022-11-22T09:21:30.613Z,8.06
2022-11-22T09:22:32.311Z,8.10
2022-11-22T09:23:34.433Z,8.11
2022-11-22T09:24:35.867Z,8.15
2022-11-22T09:25:37.447Z,8.11
2022-11-22T09:26:39.080Z,8.06
2022-11-22T09:27:40.493Z,8.03
2022-11-22T09:28:42.070Z,8.04
2022-11-22T09:29:43.466Z,7.79
2022-11-22T09:30:44.867Z,7.84
2022-11-22T09:31:46.614Z,7.88
2022-11-22T09:32:48.050Z,7.90
2022-11-22T09:33:50.149Z,7.98
2022-11-22T09:34:51.615Z,8.02
2022-11-22T09:36:00.054Z,8.06
2022-11-22T09:37:01.796Z,8.07
2022-11-22T09:38:03.188Z,8.02
2022-11-22T09:39:04.617Z,8.09
2022-11-22T09:40:06.717Z,8.17
2022-11-22T09:41:17.595Z,8.11
2022-11-22T09:42:26.048Z,8.11
2022-11-22T09:43:49.298Z,8.14
2022-11-22T09:45:16.337Z,8.08
2022-11-22T09:46:57.317Z,8.03
2022-11-22T09:48:09.691Z,7.97
2022-11-22T09:49:28.071Z,8.06
2022-11-22T09:51:09.096Z,8.03
2022-11-22T09:52:47.622Z,8.09
2022-11-22T09:53:51.630Z,8.00
2022-11-22T09:55:00.844Z,8.10
2022-11-22T09:56:08.743Z,7.99
2022-11-22T09:57:18.229Z,7.92
2022-11-22T09:58:33.990Z,7.96
2022-11-22T09:59:40.676Z,8.01
2022-11-22T10:00:47.739Z,7.92
2022-11-22T10:01:55.488Z,7.94
2022-11-22T10:03:40.940Z,7.99
2022-11-22T10:04:51.949Z,8.07
2022-11-22T10:05:57.301Z,8.15
2022-11-22T10:07:10.694Z,8.24
2022-11-22T10:08:33.556Z,8.31
2022-11-22T10:09:45.781Z,8.33
2022-11-22T10:10:53.465Z,8.26
2022-11-22T10:11:59.436Z,8.31
2022-11-22T10:13:33.714Z,8.37
2022-11-22T10:15:07.908Z,8.47
2022-11-22T10:16:23.739Z,8.33
2022-11-22T10:17:40.166Z,8.33
2022-11-22T10:18:52.210Z,8.36
2022-11-22T10:20:04.891Z,8.34
2022-11-22T10:21:13.053Z,8.34
2022-11-22T10:22:14.971Z,8.41
2022-11-22T10:23:20.780Z,8.43
2022-11-22T10:24:22.292Z,8.40
2022-11-22T10:25:41.396Z,8.41
2022-11-22T10:26:44.108Z,8.43
2022-11-22T10:27:52.281Z,8.52
2022-11-22T10:28:59.069Z,8.50
2022-11-22T10:30:05.704Z,8.42
2022-11-22T10:31:30.520Z,8.51
2022-11-22T10:32:46.823Z,8.51
2022-11-22T10:33:55.550Z,8.51
2022-11-22T10:35:15.419Z,8.55
2022-11-22T10:36:46.219Z,8.61
2022-11-22T10:38:18.421Z,8.69
2022-11-22T10:39:41.348Z,8.60
2022-11-22T10:40:52.623Z,8.64
2022-11-22T10:42:20.712Z,8.57
2022-11-22T10:43:37.473Z,8.46
2022-11-22T10:45:08.011Z,8.40
2022-11-22T10:46:43.418Z,8.54
2022-11-22T10:48:15.132Z,8.64
2022-11-22T10:49:23.857Z,8.66
2022-11-22T10:50:49.336Z,8.64
2022-11-22T10:52:09.822Z,8.58
2022-11-22T10:53:47.518Z,8.57
2022-11-22T10:54:58.146Z,8.62
2022-11-22T10:55:59.660Z,8.58
2022-11-22T10:57:01.460Z,8.61
2022-11-22T10:58:23.940Z,8.61
2022-11-22T10:59:43.554Z,8.62
2022-11-22T11:00:49.410Z,8.69
2022-11-22T11:02:11.368Z,8.67
2022-11-22T11:03:29.198Z,8.74
2022-11-22T11:04:34.836Z,8.75
2022-11-22T11:07:20.976Z,8.72
2022-11-22T11:09:36.398Z,8.75
2022-11-22T11:10:30.857Z,8.78
2022-11-22T11:11:38.739Z,8.80
2022-11-22T11:12:45.507Z,8.76
2022-11-22T11:13:58.201Z,8.75
2022-11-22T11:15:05.123Z,8.74
2022-11-22T11:16:11.081Z,8.63
2022-11-22T11:17:26.119Z,8.74
2022-11-22T11:18:37.226Z,8.68
2022-11-22T11:19:41.858Z,8.60
2022-11-22T11:20:43.826Z,8.64
2022-11-22T11:21:45.446Z,8.57
2022-11-22T11:23:17.047Z,8.55
2022-11-22T11:24:16.384Z,8.56
2022-11-22T11:25:28.799Z,8.61
2022-11-22T11:26:32.798Z,8.68
2022-11-22T11:27:34.627Z,8.61
2022-11-22T11:28:36.066Z,8.63
2022-11-22T11:29:47.052Z,8.71
2022-11-22T11:31:08.033Z,8.74
2022-11-22T11:32:16.219Z,8.81
2022-11-22T11:33:28.699Z,8.75
2022-11-22T11:34:30.453Z,8.67
2022-11-22T11:35:32.142Z,8.64
2022-11-22T11:36:33.702Z,8.64
2022-11-22T11:37:39.279Z,8.59
2022-11-22T11:38:40.621Z,8.64
2022-11-22T11:39:46.440Z,8.75
2022-11-22T11:40:47.842Z,8.61
2022-11-22T11:41:50.713Z,8.62
2022-11-22T11:43:25.278Z,8.71
2022-11-22T11:44:36.038Z,8.76
2022-11-22T11:45:37.504Z,8.76
2022-11-22T11:46:42.043Z,8.76
2022-11-22T11:47:43.800Z,8.71
2022-11-22T11:48:46.041Z,8.67
2022-11-22T11:49:51.696Z,8.71
2022-11-22T11:50:53.201Z,8.72
2022-11-22T11:51:56.046Z,8.68
2022-11-22T11:53:06.440Z,8.75
2022-11-22T11:54:44.570Z,8.82
2022-11-22T11:55:45.969Z,8.87
2022-11-22T11:56:51.928Z,8.87
2022-11-22T11:57:53.970Z,8.85
2022-11-22T11:58:58.685Z,8.89
2022-11-22T12:00:01.883Z,8.91
2022-11-22T12:01:11.065Z,8.93
2022-11-22T12:02:34.655Z,8.98
2022-11-22T12:03:36.511Z,9.04
2022-11-22T12:04:51.563Z,8.72
2022-11-22T12:06:12.841Z,8.82
2022-11-22T12:07:20.232Z,8.89
2022-11-22T12:08:32.226Z,8.94
2022-11-22T12:09:36.892Z,8.94
2022-11-22T12:10:48.884Z,8.94
2022-11-22T12:11:52.582Z,8.94
2022-11-22T12:13:31.899Z,9.05
2022-11-22T12:15:03.455Z,9.11
2022-11-22T12:16:17.732Z,9.17
2022-11-22T12:17:27.047Z,9.11
2022-11-22T12:18:37.316Z,9.09
2022-11-22T12:19:56.464Z,9.14
2022-11-22T12:21:15.803Z,9.10
2022-11-22T12:22:48.993Z,9.14
2022-11-22T12:24:34.454Z,9.08
2022-11-22T12:25:36.980Z,9.08
2022-11-22T12:26:38.954Z,9.03
2022-11-22T12:27:40.826Z,9.00
2022-11-22T12:28:42.917Z,9.05
2022-11-22T12:29:44.632Z,9.04
2022-11-22T12:31:17.864Z,9.01
2022-11-22T12:32:27.380Z,9.06
2022-11-22T12:33:43.133Z,9.12
2022-11-22T12:34:54.023Z,8.99
2022-11-22T12:35:56.785Z,9.03
2022-11-22T12:37:50.870Z,9.03
2022-11-22T12:38:53.818Z,8.94
2022-11-22T12:39:58.872Z,8.85
2022-11-22T12:41:05.726Z,8.83
2022-11-22T12:43:52.161Z,8.89
2022-11-22T12:45:01.738Z,8.87
2022-11-22T12:46:13.829Z,8.88
2022-11-22T12:47:28.470Z,8.93
2022-11-22T12:48:22.626Z,8.83
2022-11-22T12:48:39.125Z,8.94
2022-11-22T12:49:48.832Z,8.89
2022-11-22T12:50:58.017Z,8.95
2022-11-22T12:52:08.516Z,8.96
2022-11-22T12:53:14.250Z,8.98
2022-11-22T12:54:23.821Z,8.94
2022-11-22T12:55:28.061Z,8.96
2022-11-22T12:56:50.273Z,8.95
2022-11-22T12:57:58.950Z,8.95
2022-11-22T12:59:19.413Z,9.01
2022-11-22T13:00:24.190Z,8.99
2022-11-22T13:01:32.615Z,8.93
2022-11-22T13:02:59.215Z,8.76
2022-11-22T13:04:10.253Z,8.73
2022-11-22T13:05:20.296Z,8.77
2022-11-22T13:06:29.415Z,8.84
2022-11-22T13:07:36.590Z,8.87
2022-11-22T13:08:46.457Z,8.88
2022-11-22T13:10:00.674Z,8.76
2022-11-22T13:11:21.538Z,8.81
2022-11-22T13:12:31.035Z,8.81
2022-11-22T13:13:38.102Z,8.82
2022-11-22T13:14:44.760Z,8.73
2022-11-22T13:15:47.439Z,8.80
2022-11-22T13:16:52.829Z,8.78
2022-11-22T13:17:55.067Z,8.78
2022-11-22T13:19:00.498Z,8.70
2022-11-22T13:20:16.752Z,8.71
2022-11-22T13:21:39.113Z,8.75
2022-11-22T13:23:11.174Z,8.75
2022-11-22T13:24:48.116Z,8.75
2022-11-22T13:26:18.635Z,8.82
2022-11-22T13:27:25.841Z,8.89
2022-11-22T13:28:32.951Z,8.85
2022-11-22T13:29:36.885Z,8.87
2022-11-22T13:30:41.533Z,8.91
2022-11-22T13:32:11.066Z,8.82
2022-11-22T13:33:26.391Z,8.80
2022-11-22T13:34:29.286Z,8.83
2022-11-22T13:35:33.775Z,8.83
2022-11-22T13:36:38.237Z,8.86
2022-11-22T13:37:46.023Z,8.90
2022-11-22T13:38:47.971Z,8.95
2022-11-22T13:39:50.043Z,8.93
2022-11-22T13:40:51.718Z,8.84
2022-11-22T13:42:04.471Z,8.83
2022-11-22T13:43:15.560Z,8.88
2022-11-22T13:44:22.800Z,8.90
2022-11-22T13:45:25.137Z,8.94
2022-11-22T13:46:56.406Z,9.00
2022-11-22T13:47:58.209Z,9.03
2022-11-22T13:49:15.797Z,9.03
2022-11-22T13:50:52.773Z,9.06
2022-11-22T13:51:56.828Z,9.05
2022-11-22T13:52:58.707Z,9.04
2022-11-22T13:54:35.926Z,9.03
2022-11-22T13:55:42.257Z,9.02
2022-11-22T13:56:44.169Z,9.03
2022-11-22T13:57:45.752Z,9.04
2022-11-22T13:59:04.856Z,9.06
2022-11-22T14:00:29.035Z,9.09
2022-11-22T14:01:33.192Z,9.07
2022-11-22T14:02:34.740Z,9.03
2022-11-22T14:03:39.845Z,8.85
2022-11-22T14:04:44.076Z,8.84
2022-11-22T14:05:52.361Z,8.87
2022-11-22T14:06:57.679Z,8.82
2022-11-22T14:08:01.790Z,8.79
2022-11-22T14:09:26.328Z,8.81
2022-11-22T14:10:39.865Z,8.79
2022-11-22T14:11:57.143Z,8.76
2022-11-22T14:13:06.593Z,8.80
2022-11-22T14:14:33.814Z,8.80
2022-11-22T14:15:53.608Z,8.80
2022-11-22T14:17:18.314Z,8.80
2022-11-22T14:18:38.126Z,8.78
2022-11-22T14:19:50.964Z,8.76
2022-11-22T14:21:03.806Z,8.79
2022-11-22T14:22:20.481Z,8.83
2022-11-22T14:23:59.666Z,8.79
2022-11-22T14:25:13.961Z,8.77
2022-11-22T14:26:38.731Z,8.65
2022-11-22T14:27:51.700Z,8.64
2022-11-22T14:29:22.993Z,8.63
2022-11-22T14:30:46.619Z,8.64
2022-11-22T14:32:02.008Z,8.66
2022-11-22T14:33:15.634Z,8.58
2022-11-22T14:34:17.057Z,8.56
2022-11-22T14:35:31.295Z,8.44
2022-11-22T14:36:32.758Z,8.46
2022-11-22T14:37:44.681Z,8.38
2022-11-22T14:38:47.752Z,8.42
2022-11-22T14:39:53.510Z,8.41
2022-11-22T14:41:26.934Z,8.46
2022-11-22T14:42:41.067Z,8.44
2022-11-22T14:43:44.720Z,8.49
2022-11-22T14:44:46.943Z,8.52
2022-11-22T14:45:55.348Z,8.53